Time;durP1;ratioP1;P1;durP2;ratioP2;P2;SDS_P1;SDS_P2;PMS_P1;PMS_P2;Temp;Humidity;BMP_temperature;BMP_pressure;BME280_temperature;BME280_humidity;BME280_pressure;Samples;Min_cycle;Max_cycle;Signal;HPM_P1;HPM_P2
2022/12/15 00:38:42;;;;;;;83.38;29.33;;;;;;;;;;4994366;28;20191;-71
2022/12/15 00:41:13;;;;;;;86.20;29.05;;;;;;;;;;4999091;28;20223;-71
2022/12/15 00:43:41;;;;;;;105.60;31.97;;;;;;;;;;5010172;28;20192;-70
2022/12/15 00:48:53;;;;;;;91.45;30.70;;;;;;;;;;4995518;28;20283;-71
2022/12/15 00:51:20;;;;;;;82.33;26.07;;;;;;;;;;5009634;28;20224;-70
2022/12/15 01:21:20;;;;;;;85.75;28.42;;;;;;;;;;5007097;28;20224;-71
2022/12/15 01:23:50;;;;;;;79.07;26.02;;;;;;;;;;4991990;28;20563;-71
2022/12/15 01:26:17;;;;;;;83.47;27.65;;;;;;;;;;5007788;28;20271;-71
2022/12/15 01:28:43;;;;;;;82.72;28.10;;;;;;;;;;5009298;28;20192;-71
2022/12/15 01:31:10;;;;;;;78.28;27.45;;;;;;;;;;5008401;28;20682;-71
2022/12/15 01:33:37;;;;;;;82.13;29.52;;;;;;;;;;5021657;28;20640;-71
2022/12/15 01:36:04;;;;;;;95.78;29.77;;;;;;;;;;5007715;28;20215;-71
2022/12/15 01:38:30;;;;;;;92.38;28.45;;;;;;;;;;4991371;28;20194;-71
2022/12/15 01:40:58;;;;;;;87.00;27.38;;;;;;;;;;5004227;28;20668;-71
2022/12/15 01:43:26;;;;;;;78.60;27.05;;;;;;;;;;5002589;28;20844;-71
2022/12/15 01:45:53;;;;;;;84.97;28.25;;;;;;;;;;4989236;28;20219;-71
2022/12/15 01:48:41;;;;;;;81.72;29.00;;;;;;;;;;5002605;28;20204;-71
2022/12/15 01:51:11;;;;;;;85.95;27.65;;;;;;;;;;5011497;28;20318;-71
2022/12/15 01:53:42;;;;;;;85.05;26.58;;;;;;;;;;5012509;28;20256;-71
2022/12/15 01:56:10;;;;;;;84.72;28.25;;;;;;;;;;4995167;28;20184;-71
2022/12/15 01:58:36;;;;;;;88.38;29.05;;;;;;;;;;4983704;28;20284;-71
2022/12/15 02:01:03;;;;;;;83.93;27.65;;;;;;;;;;4982740;28;20603;-71
2022/12/15 02:03:30;;;;;;;79.40;27.10;;;;;;;;;;5012094;28;20226;-71
2022/12/15 02:05:58;;;;;;;79.97;28.73;;;;;;;;;;5010918;28;20203;-71
2022/12/15 02:08:25;;;;;;;82.85;28.45;;;;;;;;;;4979902;28;20194;-71
2022/12/15 02:11:05;;;;;;;84.55;25.83;;;;;;;;;;4994183;28;20246;-71
2022/12/15 02:13:50;;;;;;;78.03;25.80;;;;;;;;;;5013555;28;20558;-71
2022/12/15 02:16:23;;;;;;;71.82;24.45;;;;;;;;;;5007327;28;20252;-71
2022/12/15 02:18:58;;;;;;;74.35;25.63;;;;;;;;;;5010416;28;20200;-71
2022/12/15 02:21:27;;;;;;;80.70;25.88;;;;;;;;;;4993843;28;20188;-71
2022/12/15 02:24:01;;;;;;;81.93;27.00;;;;;;;;;;4994195;28;20711;-71
2022/12/15 02:26:40;;;;;;;88.68;27.38;;;;;;;;;;4978021;28;20670;-71
2022/12/15 02:29:25;;;;;;;74.53;24.77;;;;;;;;;;5011971;28;20211;-71
2022/12/15 02:31:53;;;;;;;68.28;23.80;;;;;;;;;;4993711;28;20193;-71
2022/12/15 02:34:31;;;;;;;82.35;27.70;;;;;;;;;;4991721;28;20190;-71
2022/12/15 02:36:58;;;;;;;77.57;28.27;;;;;;;;;;4990760;28;20911;-71
2022/12/15 02:39:25;;;;;;;82.22;29.13;;;;;;;;;;4975695;28;20220;-70
2022/12/15 02:41:51;;;;;;;79.22;27.05;;;;;;;;;;4986098;28;20773;-71
2022/12/15 02:44:37;;;;;;;81.65;26.40;;;;;;;;;;4993923;28;20287;-71
2022/12/15 02:47:13;;;;;;;85.15;28.30;;;;;;;;;;4992513;28;20205;-71
2022/12/15 02:49:54;;;;;;;72.32;23.95;;;;;;;;;;5021102;28;20187;-71
2022/12/15 02:52:50;;;;;;;74.32;24.83;;;;;;;;;;4982977;28;20254;-71
2022/12/15 02:55:19;;;;;;;85.72;25.20;;;;;;;;;;4956533;28;20202;-71
2022/12/15 02:58:02;;;;;;;86.53;26.60;;;;;;;;;;4974841;28;20324;-71
2022/12/15 03:00:29;;;;;;;72.13;24.65;;;;;;;;;;4975477;28;20278;-71
2022/12/15 03:02:55;;;;;;;61.85;23.70;;;;;;;;;;4994674;28;20307;-71
2022/12/15 03:05:23;;;;;;;67.90;24.10;;;;;;;;;;4993483;28;20242;-71
2022/12/15 03:07:49;;;;;;;73.03;23.58;;;;;;;;;;4993393;28;20213;-71
2022/12/15 03:10:16;;;;;;;78.38;23.83;;;;;;;;;;5010798;28;20199;-71
2022/12/15 03:12:43;;;;;;;64.32;24.10;;;;;;;;;;4992896;28;20219;-71
2022/12/15 03:15:10;;;;;;;77.15;24.40;;;;;;;;;;4975178;28;20223;-71
2022/12/15 03:17:37;;;;;;;65.18;23.10;;;;;;;;;;4975340;28;20188;-71
2022/12/15 03:20:04;;;;;;;73.82;25.13;;;;;;;;;;4992125;28;20242;-71
2022/12/15 03:22:30;;;;;;;65.53;23.80;;;;;;;;;;5008422;28;20217;-71
2022/12/15 03:24:57;;;;;;;59.90;23.88;;;;;;;;;;5011911;28;20191;-71
2022/12/15 03:27:23;;;;;;;70.32;25.67;;;;;;;;;;5011526;28;20225;-73
2022/12/15 03:30:09;;;;;;;92.55;33.53;;;;;;;;;;5010876;28;20431;-72
2022/12/15 03:32:38;;;;;;;73.65;26.40;;;;;;;;;;5018654;28;20198;-74
2022/12/15 03:35:22;;;;;;;77.60;24.85;;;;;;;;;;5032709;28;20193;-73
2022/12/15 03:37:49;;;;;;;82.75;24.63;;;;;;;;;;5028554;28;20190;-73
2022/12/15 03:40:16;;;;;;;83.93;26.63;;;;;;;;;;4976060;28;20187;-73
2022/12/15 03:42:49;;;;;;;74.80;27.20;;;;;;;;;;5009986;28;20294;-73
2022/12/15 03:45:25;;;;;;;80.22;26.17;;;;;;;;;;4995408;28;20227;-73
2022/12/15 03:47:51;;;;;;;88.30;29.77;;;;;;;;;;4978244;28;20290;-73
2022/12/15 03:50:19;;;;;;;98.47;29.30;;;;;;;;;;5010269;28;20214;-73
2022/12/15 03:52:53;;;;;;;98.68;28.70;;;;;;;;;;5009305;28;20246;-73
2022/12/15 03:55:21;;;;;;;116.53;34.08;;;;;;;;;;4977620;28;20275;-73
2022/12/15 03:57:48;;;;;;;139.77;39.58;;;;;;;;;;4994503;28;20210;-73
2022/12/15 04:00:14;;;;;;;119.78;36.38;;;;;;;;;;4984357;28;20199;-73
2022/12/15 04:02:41;;;;;;;85.65;29.23;;;;;;;;;;5009088;28;20228;-73
2022/12/15 04:05:12;;;;;;;83.25;26.48;;;;;;;;;;4993931;28;20218;-73
2022/12/15 04:07:39;;;;;;;71.30;24.15;;;;;;;;;;4993836;28;20237;-73
2022/12/15 04:10:05;;;;;;;89.78;26.92;;;;;;;;;;4990412;28;20996;-73
2022/12/15 04:12:32;;;;;;;74.22;26.40;;;;;;;;;;5003355;28;20197;-73
2022/12/15 04:14:58;;;;;;;72.85;23.88;;;;;;;;;;4991927;28;20286;-73
2022/12/15 04:17:25;;;;;;;66.32;24.13;;;;;;;;;;4973865;28;20206;-73
2022/12/15 04:20:10;;;;;;;81.20;25.70;;;;;;;;;;4991541;28;20219;-73
2022/12/15 04:22:37;;;;;;;83.15;25.88;;;;;;;;;;5006410;28;20237;-73
2022/12/15 05:31:50;;;;;;;76.00;28.15;;;;;;;;;;5014578;28;20569;-69
2022/12/15 05:34:20;;;;;;;79.15;26.92;;;;;;;;;;5005875;28;20206;-68
2022/12/15 05:36:47;;;;;;;97.28;28.38;;;;;;;;;;5004742;28;20206;-70
2022/12/15 05:39:14;;;;;;;75.75;25.17;;;;;;;;;;4980346;28;20214;-74
2022/12/15 05:41:58;;;;;;;58.85;21.95;;;;;;;;;;5011516;28;20172;-71
2022/12/15 05:44:25;;;;;;;65.80;24.25;;;;;;;;;;4986943;28;20991;-71
2022/12/15 05:46:52;;;;;;;74.75;22.55;;;;;;;;;;5003158;28;20257;-69
2022/12/15 05:49:19;;;;;;;72.68;24.55;;;;;;;;;;4996016;28;20213;-70
2022/12/15 05:51:46;;;;;;;70.30;22.00;;;;;;;;;;4996888;28;20281;-70
2022/12/15 05:54:14;;;;;;;65.88;20.98;;;;;;;;;;4988817;28;20187;-70
2022/12/15 05:56:42;;;;;;;58.40;19.70;;;;;;;;;;4988449;28;20556;-73
2022/12/15 05:59:08;;;;;;;57.78;20.45;;;;;;;;;;5001436;28;20218;-73
2022/12/15 06:01:35;;;;;;;69.90;22.00;;;;;;;;;;4996707;28;20282;-72
2022/12/15 06:04:02;;;;;;;63.75;23.85;;;;;;;;;;4990456;28;20292;-73
2022/12/15 06:06:29;;;;;;;64.15;23.50;;;;;;;;;;4991991;28;20203;-73
2022/12/15 06:08:55;;;;;;;67.40;24.23;;;;;;;;;;5009167;28;20625;-73
2022/12/15 06:11:23;;;;;;;73.65;25.77;;;;;;;;;;5009264;28;20253;-73
2022/12/15 06:13:49;;;;;;;64.25;22.50;;;;;;;;;;5008904;28;20297;-73
2022/12/15 06:16:17;;;;;;;64.13;20.25;;;;;;;;;;5009426;28;20191;-73
2022/12/15 06:18:44;;;;;;;99.70;31.17;;;;;;;;;;4991705;28;20198;-73
2022/12/15 06:21:16;;;;;;;74.88;27.27;;;;;;;;;;4992544;28;20201;-73
2022/12/15 06:23:43;;;;;;;64.45;25.20;;;;;;;;;;5009375;28;20209;-73
2022/12/15 06:26:20;;;;;;;66.88;23.55;;;;;;;;;;4991933;28;20197;-73
2022/12/15 06:28:47;;;;;;;58.22;20.20;;;;;;;;;;5011214;28;20281;-73
2022/12/15 06:31:14;;;;;;;57.80;20.95;;;;;;;;;;4995613;28;20194;-73
2022/12/15 06:33:40;;;;;;;76.97;24.15;;;;;;;;;;5011571;28;20193;-73
2022/12/15 06:36:08;;;;;;;73.78;25.88;;;;;;;;;;4998715;28;20735;-73
2022/12/15 06:38:34;;;;;;;74.25;23.52;;;;;;;;;;5014967;28;20189;-73
2022/12/15 06:41:02;;;;;;;62.10;22.15;;;;;;;;;;5014692;28;20212;-73
2022/12/15 06:43:29;;;;;;;70.78;25.23;;;;;;;;;;5014332;28;20222;-73
2022/12/15 06:45:56;;;;;;;114.70;33.63;;;;;;;;;;5032279;28;20213;-73
2022/12/15 06:48:23;;;;;;;98.03;33.05;;;;;;;;;;5031830;28;20225;-73
2022/12/15 06:50:50;;;;;;;105.65;31.92;;;;;;;;;;5014335;28;20727;-73
2022/12/15 06:53:17;;;;;;;90.43;31.08;;;;;;;;;;5014967;28;20222;-73
2022/12/15 06:55:44;;;;;;;120.53;33.78;;;;;;;;;;5031789;28;20716;-72
2022/12/15 06:58:28;;;;;;;102.80;31.00;;;;;;;;;;5031634;28;20529;-73
2022/12/15 07:00:55;;;;;;;95.47;28.92;;;;;;;;;;5032097;28;20193;-73
2022/12/15 07:03:39;;;;;;;86.90;28.98;;;;;;;;;;5016211;28;20323;-73
2022/12/15 07:06:08;;;;;;;96.30;30.92;;;;;;;;;;5031824;28;20181;-73
2022/12/15 07:08:35;;;;;;;98.32;30.90;;;;;;;;;;5014337;28;20191;-73
2022/12/15 07:11:07;;;;;;;131.13;35.95;;;;;;;;;;5015066;28;20296;-73
2022/12/15 07:13:34;;;;;;;106.05;29.60;;;;;;;;;;5013836;28;20186;-72
2022/12/15 07:16:01;;;;;;;92.90;27.67;;;;;;;;;;5031707;28;20266;-73
2022/12/15 07:18:28;;;;;;;72.40;25.83;;;;;;;;;;5031307;28;20206;-72
2022/12/15 07:20:55;;;;;;;74.78;24.05;;;;;;;;;;4997586;28;20196;-72
2022/12/15 07:23:21;;;;;;;82.78;27.33;;;;;;;;;;5013705;28;20218;-73
2022/12/15 07:26:08;;;;;;;77.55;25.17;;;;;;;;;;5024553;28;20191;-72
2022/12/15 07:28:37;;;;;;;75.82;26.40;;;;;;;;;;4962667;28;20277;-73
2022/12/15 07:31:07;;;;;;;102.20;29.55;;;;;;;;;;4994194;28;20191;-73
2022/12/15 07:33:34;;;;;;;80.05;28.48;;;;;;;;;;4993096;28;20202;-72
2022/12/15 07:36:01;;;;;;;88.25;30.58;;;;;;;;;;5031352;28;20633;-73
2022/12/15 07:38:28;;;;;;;71.63;25.98;;;;;;;;;;4996733;28;20885;-73
2022/12/15 07:40:54;;;;;;;79.05;26.23;;;;;;;;;;4996709;28;20191;-73
2022/12/15 07:43:21;;;;;;;75.25;27.40;;;;;;;;;;5013016;28;20221;-73
2022/12/15 07:45:51;;;;;;;75.68;26.95;;;;;;;;;;5031090;28;20190;-73
2022/12/15 07:48:18;;;;;;;81.13;27.02;;;;;;;;;;5013437;28;20245;-73
2022/12/15 07:50:47;;;;;;;83.72;28.95;;;;;;;;;;4996779;28;20268;-73
2022/12/15 07:53:16;;;;;;;74.57;27.55;;;;;;;;;;5031177;28;20216;-73
2022/12/15 07:55:42;;;;;;;92.60;30.83;;;;;;;;;;5012795;28;20199;-73
2022/12/15 07:58:29;;;;;;;76.13;27.50;;;;;;;;;;5030242;28;20195;-73
2022/12/15 08:00:59;;;;;;;78.43;28.05;;;;;;;;;;5030606;28;20259;-73
2022/12/15 08:03:26;;;;;;;88.35;28.90;;;;;;;;;;5014337;28;20202;-73
2022/12/15 08:05:53;;;;;;;107.75;32.83;;;;;;;;;;5031721;28;20194;-73
2022/12/15 08:08:27;;;;;;;84.32;29.13;;;;;;;;;;5030525;28;20196;-73
2022/12/15 08:10:55;;;;;;;99.93;32.53;;;;;;;;;;5030473;28;20193;-73
2022/12/15 08:13:21;;;;;;;95.80;30.25;;;;;;;;;;5030176;28;20195;-73
2022/12/15 08:16:08;;;;;;;95.43;33.30;;;;;;;;;;5030369;28;20179;-73
2022/12/15 08:18:35;;;;;;;95.05;33.88;;;;;;;;;;5030789;28;20191;-73
2022/12/15 08:21:02;;;;;;;93.15;35.55;;;;;;;;;;5012813;28;20257;-73
2022/12/15 08:23:29;;;;;;;108.60;38.85;;;;;;;;;;5012702;28;20794;-73
2022/12/15 08:26:04;;;;;;;101.40;38.10;;;;;;;;;;5012994;28;20191;-73
2022/12/15 08:28:31;;;;;;;127.77;43.67;;;;;;;;;;5010163;28;20495;-73
2022/12/15 08:31:16;;;;;;;159.87;51.30;;;;;;;;;;4998584;28;20824;-73
2022/12/15 08:33:43;;;;;;;133.37;46.57;;;;;;;;;;4995864;28;20430;-73
2022/12/15 08:36:10;;;;;;;145.30;49.30;;;;;;;;;;4976735;28;20453;-73
2022/12/15 08:38:40;;;;;;;162.97;53.83;;;;;;;;;;4992859;28;20479;-73
2022/12/15 08:41:07;;;;;;;173.33;54.73;;;;;;;;;;4977179;28;20435;-73
2022/12/15 08:43:52;;;;;;;205.57;58.47;;;;;;;;;;5010439;28;20827;-73
2022/12/15 08:46:19;;;;;;;187.10;56.63;;;;;;;;;;4992589;28;20538;-73
2022/12/15 08:48:46;;;;;;;203.93;62.27;;;;;;;;;;4992697;28;20452;-73
2022/12/15 08:51:15;;;;;;;195.07;60.67;;;;;;;;;;4992729;28;20519;-73
2022/12/15 08:53:41;;;;;;;179.80;55.57;;;;;;;;;;4992845;28;20454;-73
2022/12/15 08:56:26;;;;;;;176.00;54.03;;;;;;;;;;5009745;28;20415;-73
2022/12/15 08:58:56;;;;;;;178.40;55.73;;;;;;;;;;4992767;28;20490;-73
2022/12/15 09:01:27;;;;;;;163.00;54.23;;;;;;;;;;4992978;28;20986;-72
2022/12/15 09:03:54;;;;;;;153.03;50.50;;;;;;;;;;5010096;28;21000;-72
2022/12/15 09:06:22;;;;;;;159.27;53.23;;;;;;;;;;4992242;28;20443;-72
2022/12/15 09:08:48;;;;;;;144.33;49.70;;;;;;;;;;4992275;28;20867;-73
2022/12/15 09:11:16;;;;;;;149.37;49.93;;;;;;;;;;5009949;28;20799;-73
2022/12/15 09:13:43;;;;;;;142.67;49.83;;;;;;;;;;5009323;28;20475;-73
2022/12/15 09:16:13;;;;;;;141.77;50.73;;;;;;;;;;4975826;28;20451;-73
2022/12/15 09:18:44;;;;;;;126.73;47.57;;;;;;;;;;4976923;28;20473;-73
2022/12/15 09:21:10;;;;;;;124.50;49.77;;;;;;;;;;5009179;28;20448;-73
2022/12/15 09:23:37;;;;;;;133.00;48.43;;;;;;;;;;4991568;28;20471;-73
2022/12/15 09:26:04;;;;;;;133.80;51.63;;;;;;;;;;4991567;28;20833;-73
2022/12/15 09:28:30;;;;;;;127.13;49.90;;;;;;;;;;5009198;28;20465;-73
2022/12/15 09:31:04;;;;;;;117.97;48.03;;;;;;;;;;5010000;28;20842;-72
2022/12/15 09:33:30;;;;;;;109.43;43.03;;;;;;;;;;5007886;28;20504;-72
2022/12/15 09:35:58;;;;;;;97.03;41.13;;;;;;;;;;5012757;28;20786;-72
2022/12/15 09:38:24;;;;;;;95.27;39.27;;;;;;;;;;5029757;28;20426;-72
2022/12/15 09:40:51;;;;;;;90.03;39.00;;;;;;;;;;5030261;28;20821;-72
2022/12/15 09:43:19;;;;;;;93.50;38.17;;;;;;;;;;5013009;28;20423;-72
2022/12/15 09:46:01;;;;;;;70.20;31.67;;;;;;;;;;5030512;28;20800;-72
2022/12/15 09:48:31;;;;;;;82.70;35.30;;;;;;;;;;5013205;28;20430;-72
2022/12/15 09:50:57;;;;;;;73.30;33.43;;;;;;;;;;5029866;28;20841;-72
2022/12/15 09:53:24;;;;;;;73.73;29.80;;;;;;;;;;5012907;28;20496;-71
2022/12/15 09:56:20;;;;;;;72.60;29.37;;;;;;;;;;5030568;28;20434;-71
2022/12/15 09:58:47;;;;;;;68.80;27.30;;;;;;;;;;5013161;28;20843;-71
2022/12/15 10:01:16;;;;;;;72.43;29.07;;;;;;;;;;4996566;28;20434;-71
2022/12/15 10:03:43;;;;;;;70.50;28.13;;;;;;;;;;5032622;28;20875;-71
2022/12/15 10:06:13;;;;;;;68.57;31.80;;;;;;;;;;5034271;28;20517;-71
2022/12/15 10:08:44;;;;;;;83.17;33.27;;;;;;;;;;5016744;28;20764;-71
2022/12/15 10:11:11;;;;;;;76.73;33.13;;;;;;;;;;5016500;28;20465;-71
2022/12/15 10:13:39;;;;;;;80.30;34.30;;;;;;;;;;5034463;28;20430;-71
2022/12/15 10:16:12;;;;;;;83.47;34.33;;;;;;;;;;5016434;28;20426;-71
2022/12/15 10:18:40;;;;;;;85.77;35.67;;;;;;;;;;5000521;28;20430;-71
2022/12/15 10:21:08;;;;;;;75.37;34.07;;;;;;;;;;5016621;28;20795;-72
2022/12/15 10:23:34;;;;;;;83.00;37.07;;;;;;;;;;5016632;28;20507;-72
2022/12/15 10:26:19;;;;;;;81.47;36.57;;;;;;;;;;5016488;28;20430;-72
2022/12/15 10:28:49;;;;;;;79.73;34.80;;;;;;;;;;5033927;28;20452;-72
2022/12/15 10:31:35;;;;;;;64.63;29.33;;;;;;;;;;5016475;28;20444;-72
2022/12/15 10:34:22;;;;;;;80.90;33.73;;;;;;;;;;5014223;28;20517;-72
2022/12/15 10:36:50;;;;;;;67.97;29.07;;;;;;;;;;5013986;28;20466;-72
2022/12/15 10:39:16;;;;;;;50.87;24.73;;;;;;;;;;4996748;28;20489;-71
2022/12/15 10:41:43;;;;;;;58.43;26.23;;;;;;;;;;5013951;28;20463;-72
2022/12/15 10:44:22;;;;;;;52.00;21.53;;;;;;;;;;4996256;28;20469;-72
2022/12/15 10:46:57;;;;;;;43.53;18.60;;;;;;;;;;4997669;28;20490;-71
2022/12/15 10:49:24;;;;;;;63.10;25.40;;;;;;;;;;4996444;28;20471;-71
2022/12/15 10:51:52;;;;;;;66.70;27.00;;;;;;;;;;5012712;28;20895;-72
2022/12/15 10:54:19;;;;;;;61.30;23.37;;;;;;;;;;5012590;28;20489;-72
2022/12/15 10:56:51;;;;;;;66.03;27.83;;;;;;;;;;4995418;28;20482;-72
2022/12/15 10:59:21;;;;;;;55.27;21.90;;;;;;;;;;4994956;28;20974;-72
2022/12/15 11:01:47;;;;;;;69.57;28.50;;;;;;;;;;5012411;28;20427;-72
2022/12/15 11:04:29;;;;;;;63.70;28.20;;;;;;;;;;4995411;28;20803;-72
2022/12/15 11:07:13;;;;;;;62.20;27.20;;;;;;;;;;4997516;28;20434;-72
2022/12/15 11:09:40;;;;;;;55.83;26.33;;;;;;;;;;5012499;28;20973;-72
2022/12/15 11:15:20;;;;;;;63.73;28.10;;;;;;;;;;4997191;28;20894;-72
2022/12/15 11:18:11;;;;;;;58.23;26.43;;;;;;;;;;5011987;28;20434;-72
2022/12/15 11:20:42;;;;;;;68.37;27.63;;;;;;;;;;4979245;28;20458;-72
2022/12/15 11:23:17;;;;;;;56.30;24.40;;;;;;;;;;4995315;28;20446;-72
2022/12/15 11:25:44;;;;;;;65.43;27.73;;;;;;;;;;4994314;28;20475;-72
2022/12/15 11:28:17;;;;;;;63.27;27.83;;;;;;;;;;5012298;28;20535;-72
2022/12/15 11:30:45;;;;;;;66.80;28.23;;;;;;;;;;5011861;28;20779;-72
2022/12/15 11:33:11;;;;;;;65.43;28.63;;;;;;;;;;5024277;28;20512;-72
2022/12/15 11:35:47;;;;;;;60.23;27.23;;;;;;;;;;5031836;28;20497;-72
2022/12/15 11:38:14;;;;;;;60.43;27.73;;;;;;;;;;5013923;28;20992;-72
2022/12/15 11:40:41;;;;;;;41.20;19.57;;;;;;;;;;5031431;28;20434;-72
2022/12/15 11:43:17;;;;;;;71.63;29.80;;;;;;;;;;5031472;28;20426;-72
2022/12/15 11:45:51;;;;;;;60.30;26.83;;;;;;;;;;5013838;28;20845;-72
2022/12/15 11:48:19;;;;;;;64.77;27.50;;;;;;;;;;5031337;28;20504;-72
2022/12/15 11:50:57;;;;;;;49.07;21.03;;;;;;;;;;4972096;28;1201158;-73
2022/12/15 11:53:59;;;;;;;60.33;27.87;;;;;;;;;;5014819;28;20183;-72
2022/12/15 11:56:28;;;;;;;60.10;25.10;;;;;;;;;;4951952;29;21031;-72
2022/12/15 11:59:07;;;;;;;53.50;22.50;;;;;;;;;;5000080;28;20981;-72
2022/12/15 12:01:37;;;;;;;56.43;24.50;;;;;;;;;;5032356;28;21003;-72
2022/12/15 12:04:19;;;;;;;53.67;24.37;;;;;;;;;;5031945;28;20477;-72
2022/12/15 12:07:19;;;;;;;59.00;24.63;;;;;;;;;;5032006;28;20533;-73
2022/12/15 12:09:52;;;;;;;54.47;23.00;;;;;;;;;;5024961;28;20970;-73
2022/12/15 12:12:35;;;;;;;44.50;20.90;;;;;;;;;;5014113;28;20458;-72
2022/12/15 12:15:20;;;;;;;39.40;18.00;;;;;;;;;;5032129;28;20548;-72
2022/12/15 12:17:50;;;;;;;33.60;13.80;;;;;;;;;;5031859;28;20453;-72
2022/12/15 12:20:18;;;;;;;47.60;21.27;;;;;;;;;;5032132;28;20434;-72
2022/12/15 12:23:04;;;;;;;54.77;24.53;;;;;;;;;;5031770;28;20429;-71
2022/12/15 12:25:38;;;;;;;56.23;24.23;;;;;;;;;;5014036;28;20560;-71
2022/12/15 12:28:19;;;;;;;51.07;22.17;;;;;;;;;;5014641;28;20434;-71
2022/12/15 12:30:46;;;;;;;56.63;25.90;;;;;;;;;;5031683;28;20489;-71
2022/12/15 12:33:19;;;;;;;52.87;23.93;;;;;;;;;;5018531;28;20482;-71
2022/12/15 12:35:47;;;;;;;49.30;21.17;;;;;;;;;;5011899;28;20431;-71
2022/12/15 12:38:14;;;;;;;44.37;19.83;;;;;;;;;;4994499;28;20431;-71
2022/12/15 12:40:59;;;;;;;49.50;21.93;;;;;;;;;;4994489;28;20494;-71
2022/12/15 12:43:33;;;;;;;48.87;21.73;;;;;;;;;;5011820;28;20434;-71
2022/12/15 12:46:02;;;;;;;52.70;23.63;;;;;;;;;;4994547;28;20475;-71
2022/12/15 12:48:34;;;;;;;38.70;16.77;;;;;;;;;;5011948;28;20431;-71
2022/12/15 12:51:19;;;;;;;22.43;9.07;;;;;;;;;;5011467;28;20818;-71
2022/12/15 12:53:46;;;;;;;46.63;20.20;;;;;;;;;;5011389;28;20489;-71
2022/12/15 12:56:40;;;;;;;40.93;17.40;;;;;;;;;;4993973;28;20435;-71
2022/12/15 12:59:25;;;;;;;46.13;19.20;;;;;;;;;;4993882;28;20454;-71
2022/12/15 13:01:53;;;;;;;48.27;19.70;;;;;;;;;;4993968;28;20451;-73
2022/12/15 13:04:29;;;;;;;39.83;17.47;;;;;;;;;;4993932;28;20474;-73
2022/12/15 13:06:57;;;;;;;53.07;20.83;;;;;;;;;;4993960;28;20542;-73
2022/12/15 13:09:37;;;;;;;28.30;10.13;;;;;;;;;;5011467;28;20423;-73
2022/12/15 13:12:07;;;;;;;60.03;24.80;;;;;;;;;;4977593;28;20446;-73
2022/12/15 13:14:55;;;;;;;51.77;19.23;;;;;;;;;;4996864;28;20574;-73
2022/12/15 13:17:29;;;;;;;56.50;23.83;;;;;;;;;;4993718;28;20441;-73
2022/12/15 13:19:59;;;;;;;43.37;16.63;;;;;;;;;;4993990;28;20431;-73
2022/12/15 13:22:32;;;;;;;69.50;25.10;;;;;;;;;;5011055;28;20539;-72
2022/12/15 13:24:59;;;;;;;56.23;21.47;;;;;;;;;;5011210;28;20478;-73
2022/12/15 13:27:35;;;;;;;64.20;26.87;;;;;;;;;;4993191;28;20450;-72
2022/12/15 13:30:08;;;;;;;45.23;17.17;;;;;;;;;;4993734;28;20427;-72
2022/12/15 13:32:38;;;;;;;57.47;23.93;;;;;;;;;;5018459;28;20442;-72
2022/12/15 13:35:11;;;;;;;46.53;18.27;;;;;;;;;;5013250;28;20433;-72
2022/12/15 13:37:49;;;;;;;58.00;24.30;;;;;;;;;;5029974;28;20444;-72
2022/12/15 13:40:22;;;;;;;66.87;24.37;;;;;;;;;;5013364;28;20428;-72
2022/12/15 13:42:58;;;;;;;34.83;13.43;;;;;;;;;;5030735;28;20525;-72
2022/12/15 13:45:49;;;;;;;55.33;23.50;;;;;;;;;;5030514;28;20464;-72
2022/12/15 13:48:24;;;;;;;37.03;15.10;;;;;;;;;;5021102;28;20448;-72
2022/12/15 13:50:55;;;;;;;44.17;18.13;;;;;;;;;;5013234;28;20465;-72
2022/12/15 13:53:22;;;;;;;42.93;19.50;;;;;;;;;;5013128;28;20456;-72
2022/12/15 13:55:53;;;;;;;46.27;21.07;;;;;;;;;;5030402;28;20459;-72
2022/12/15 13:58:20;;;;;;;46.43;21.70;;;;;;;;;;4996906;28;20911;-72
2022/12/15 14:00:48;;;;;;;53.77;21.20;;;;;;;;;;5012753;28;20462;-72
2022/12/15 14:03:16;;;;;;;58.00;22.87;;;;;;;;;;5013256;28;20435;-72
2022/12/15 14:05:47;;;;;;;54.77;22.50;;;;;;;;;;5030223;28;20482;-72
2022/12/15 14:08:19;;;;;;;42.50;16.97;;;;;;;;;;5030751;28;20444;-72
2022/12/15 14:10:53;;;;;;;51.07;21.30;;;;;;;;;;4997213;28;20440;-72
2022/12/15 14:13:21;;;;;;;60.10;22.70;;;;;;;;;;5012998;28;20939;-72
2022/12/15 14:15:58;;;;;;;60.80;24.23;;;;;;;;;;5012994;28;20433;-72
2022/12/15 14:18:26;;;;;;;59.80;25.30;;;;;;;;;;5012829;28;20457;-72
2022/12/15 14:20:54;;;;;;;63.37;23.67;;;;;;;;;;5030564;28;20998;-72
2022/12/15 14:23:22;;;;;;;83.07;31.40;;;;;;;;;;5030384;28;20431;-72
2022/12/15 14:25:52;;;;;;;64.67;25.70;;;;;;;;;;4996199;28;20892;-72
2022/12/15 14:28:29;;;;;;;64.80;27.70;;;;;;;;;;5012930;28;20444;-72
2022/12/15 14:31:00;;;;;;;49.23;19.97;;;;;;;;;;5030338;28;20886;-72
2022/12/15 14:33:26;;;;;;;69.63;27.27;;;;;;;;;;4981443;28;20444;-72
2022/12/15 14:35:55;;;;;;;70.43;27.53;;;;;;;;;;4993681;28;20435;-72
2022/12/15 14:38:26;;;;;;;31.37;12.60;;;;;;;;;;5010247;28;20440;-72
2022/12/15 14:40:56;;;;;;;72.60;30.23;;;;;;;;;;5010629;28;20436;-72
2022/12/15 14:43:23;;;;;;;68.83;27.20;;;;;;;;;;5010113;28;20536;-72
2022/12/15 14:45:53;;;;;;;79.90;29.43;;;;;;;;;;4977202;28;20503;-72
2022/12/15 14:48:27;;;;;;;55.93;21.10;;;;;;;;;;4993480;28;20433;-72
2022/12/15 14:51:07;;;;;;;34.90;13.87;;;;;;;;;;4998439;28;20471;-72
2022/12/15 14:53:35;;;;;;;47.40;18.27;;;;;;;;;;4980214;28;20986;-72
2022/12/15 14:56:17;;;;;;;65.17;26.40;;;;;;;;;;4996370;28;20433;-72
2022/12/15 14:59:16;;;;;;;37.57;15.07;;;;;;;;;;5013659;28;20954;-72
2022/12/15 15:01:49;;;;;;;57.63;22.67;;;;;;;;;;4996229;28;20491;-72
2022/12/15 15:04:31;;;;;;;71.27;26.60;;;;;;;;;;5013463;28;20519;-73
2022/12/15 15:06:59;;;;;;;73.70;29.80;;;;;;;;;;4996446;28;20531;-73
2022/12/15 15:09:29;;;;;;;81.83;32.43;;;;;;;;;;4995855;28;20481;-73
2022/12/15 15:12:01;;;;;;;101.87;37.13;;;;;;;;;;5013608;28;20789;-73
2022/12/15 15:14:37;;;;;;;103.00;38.00;;;;;;;;;;4996039;28;20438;-73
2022/12/15 15:17:05;;;;;;;90.03;33.60;;;;;;;;;;5013221;28;20431;-73
2022/12/15 15:19:32;;;;;;;84.50;32.70;;;;;;;;;;4994138;28;20822;-73
2022/12/15 15:22:23;;;;;;;80.53;32.50;;;;;;;;;;4996329;28;20428;-73
2022/12/15 15:24:50;;;;;;;83.27;31.50;;;;;;;;;;4995710;28;20467;-73
2022/12/15 15:27:23;;;;;;;81.93;30.37;;;;;;;;;;4988604;28;20959;-73
2022/12/15 15:29:50;;;;;;;56.43;23.20;;;;;;;;;;4995421;28;20463;-73
2022/12/15 15:32:21;;;;;;;61.13;20.67;;;;;;;;;;5018488;28;20438;-72
2022/12/15 15:34:50;;;;;;;47.13;17.83;;;;;;;;;;5013880;28;20547;-72
2022/12/15 15:37:20;;;;;;;68.30;25.47;;;;;;;;;;4996106;28;20463;-72
2022/12/15 15:39:48;;;;;;;67.10;24.20;;;;;;;;;;4991159;28;20946;-73
2022/12/15 15:42:15;;;;;;;68.73;26.33;;;;;;;;;;5012729;28;20432;-72
2022/12/15 15:44:43;;;;;;;83.27;30.97;;;;;;;;;;5012951;28;20564;-73
2022/12/15 15:47:19;;;;;;;84.23;32.77;;;;;;;;;;5012985;28;20443;-73
2022/12/15 15:49:48;;;;;;;83.10;32.73;;;;;;;;;;4995670;28;20439;-73
2022/12/15 15:52:15;;;;;;;88.80;34.37;;;;;;;;;;5012894;28;20916;-73
2022/12/15 15:54:42;;;;;;;98.53;35.93;;;;;;;;;;4995059;28;20471;-73
2022/12/15 15:57:15;;;;;;;101.93;36.93;;;;;;;;;;4982283;28;21176;-73
2022/12/15 15:59:43;;;;;;;81.33;30.77;;;;;;;;;;4994442;28;20855;-72
2022/12/15 16:02:10;;;;;;;90.70;33.53;;;;;;;;;;4993936;28;20443;-70
2022/12/15 16:04:40;;;;;;;97.23;35.83;;;;;;;;;;5012396;28;20798;-76
2022/12/15 16:07:23;;;;;;;92.17;35.40;;;;;;;;;;5016382;28;20430;-74
2022/12/15 16:09:50;;;;;;;96.10;34.90;;;;;;;;;;5020326;28;20858;-74
2022/12/15 16:12:24;;;;;;;107.80;36.70;;;;;;;;;;4994375;28;20477;-74
2022/12/15 16:14:50;;;;;;;103.97;36.53;;;;;;;;;;4993606;28;20439;-76
2022/12/15 16:17:17;;;;;;;93.63;34.93;;;;;;;;;;5011401;28;20523;-74
2022/12/15 16:19:44;;;;;;;102.73;39.07;;;;;;;;;;4994601;28;20475;-74
2022/12/15 16:22:14;;;;;;;108.53;39.17;;;;;;;;;;5012609;28;20431;-75
2022/12/15 16:24:42;;;;;;;52.80;20.13;;;;;;;;;;4995242;28;20500;-74
2022/12/15 16:27:09;;;;;;;65.67;23.63;;;;;;;;;;5011643;28;20494;-73
2022/12/15 16:29:36;;;;;;;109.40;35.73;;;;;;;;;;4994439;28;20439;-75
2022/12/15 16:32:04;;;;;;;109.77;39.63;;;;;;;;;;5014888;28;20933;-74
2022/12/15 16:34:30;;;;;;;86.87;32.87;;;;;;;;;;4976715;28;20436;-75
2022/12/15 16:36:57;;;;;;;112.00;38.73;;;;;;;;;;5003485;28;20515;-76
2022/12/15 16:39:28;;;;;;;97.63;35.50;;;;;;;;;;4993938;28;20846;-68
2022/12/15 16:41:54;;;;;;;55.80;19.77;;;;;;;;;;4981726;28;20986;-69
2022/12/15 16:44:22;;;;;;;89.83;32.20;;;;;;;;;;4992019;28;20435;-76
2022/12/15 16:46:49;;;;;;;86.87;31.57;;;;;;;;;;4991951;28;20565;-76
2022/12/15 16:49:15;;;;;;;79.83;29.30;;;;;;;;;;4990970;28;20441;-72
2022/12/15 16:51:43;;;;;;;108.90;39.63;;;;;;;;;;4990316;28;20484;-73
2022/12/15 16:54:14;;;;;;;80.03;28.43;;;;;;;;;;5008611;28;20561;-71
2022/12/15 16:56:41;;;;;;;80.17;30.40;;;;;;;;;;5011072;28;20435;-71